Time;durP1;ratioP1;P1;durP2;ratioP2;P2;SDS_P1;SDS_P2;PMS_P1;PMS_P2;Temp;Humidity;BMP_temperature;BMP_pressure;BME280_temperature;BME280_humidity;BME280_pressure;Samples;Min_cycle;Max_cycle;Signal;HPM_P1;HPM_P2
2023/04/03 00:00:29;;;;;;;13.33;12.10;;;5.70;99.90;;;;;;4897891;29;20187;-85
2023/04/03 00:02:55;;;;;;;12.63;11.38;;;5.70;99.90;;;;;;4897832;29;20419;-83
2023/04/03 00:05:21;;;;;;;13.37;11.97;;;5.70;99.90;;;;;;4898802;29;20258;-83
2023/04/03 00:07:47;;;;;;;12.80;11.70;;;5.60;99.90;;;;;;4896931;29;20407;-81
2023/04/03 00:10:13;;;;;;;14.77;11.67;;;5.70;99.90;;;;;;4898673;29;20262;-83
2023/04/03 00:12:39;;;;;;;12.98;11.60;;;5.60;99.90;;;;;;4898643;29;20222;-83
2023/04/03 00:15:05;;;;;;;13.07;11.87;;;5.50;99.90;;;;;;4896325;29;20175;-82
2023/04/03 00:17:31;;;;;;;12.55;11.25;;;5.50;99.90;;;;;;4897667;29;20818;-83
2023/04/03 00:19:57;;;;;;;11.63;10.43;;;5.50;99.90;;;;;;4897778;29;20180;-84
2023/04/03 00:22:23;;;;;;;12.23;10.60;;;5.50;99.90;;;;;;4898374;29;20240;-83
2023/04/03 00:24:49;;;;;;;11.57;10.55;;;5.50;99.90;;;;;;4897057;29;20270;-83
2023/04/03 00:27:15;;;;;;;11.87;10.77;;;5.50;99.90;;;;;;4896597;29;20696;-83
2023/04/03 00:29:41;;;;;;;12.57;11.38;;;5.30;99.90;;;;;;4897636;29;20807;-83
2023/04/03 00:32:07;;;;;;;12.90;10.40;;;5.40;99.90;;;;;;4897486;29;20203;-83
2023/04/03 00:34:32;;;;;;;11.73;10.70;;;5.30;99.90;;;;;;4897027;29;20184;-83
2023/04/03 00:36:58;;;;;;;12.00;10.87;;;5.30;99.90;;;;;;4895242;29;20541;-85
2023/04/03 00:39:24;;;;;;;11.20;10.30;;;5.30;99.90;;;;;;4898193;29;20176;-85
2023/04/03 00:41:50;;;;;;;11.77;10.60;;;5.30;99.90;;;;;;4897326;29;20645;-84
2023/04/03 00:44:27;;;;;;;11.03;9.80;;;5.40;99.90;;;;;;4898128;29;20180;-85
2023/04/03 00:46:53;;;;;;;10.68;9.25;;;5.30;99.90;;;;;;4896430;29;20187;-84
2023/04/03 00:49:19;;;;;;;11.03;10.03;;;5.40;99.90;;;;;;4896690;29;20190;-86
2023/04/03 00:51:45;;;;;;;12.18;10.32;;;5.40;99.90;;;;;;4898049;29;20563;-84
2023/04/03 00:54:12;;;;;;;11.15;10.15;;;5.30;99.90;;;;;;4897059;29;20776;-85
2023/04/03 00:56:38;;;;;;;10.75;9.75;;;5.30;99.90;;;;;;4887654;29;20644;-86
2023/04/03 00:59:10;;;;;;;10.73;9.65;;;5.30;99.90;;;;;;4896972;29;20533;-85
2023/04/03 01:01:37;;;;;;;10.35;9.45;;;5.40;99.90;;;;;;4897859;29;20240;-86
2023/04/03 01:04:03;;;;;;;13.18;11.02;;;5.40;99.90;;;;;;4896673;29;20171;-85
2023/04/03 01:06:33;;;;;;;10.18;9.38;;;5.30;99.90;;;;;;4896121;29;20179;-85
2023/04/03 01:09:00;;;;;;;11.68;10.52;;;5.20;99.90;;;;;;4897057;29;20184;-85
2023/04/03 01:11:26;;;;;;;10.93;9.93;;;5.20;99.90;;;;;;4896328;29;20223;-84
2023/04/03 01:13:53;;;;;;;11.18;10.10;;;5.20;99.90;;;;;;4896782;29;20600;-83
2023/04/03 01:16:19;;;;;;;11.40;10.30;;;5.20;99.90;;;;;;4896092;29;20195;-83
2023/04/03 01:18:45;;;;;;;11.57;10.50;;;5.20;99.90;;;;;;4895791;29;20274;-83
2023/04/03 01:21:50;;;;;;;11.20;10.20;;;5.20;99.90;;;;;;4896730;29;20195;-84
2023/04/03 01:24:27;;;;;;;11.30;10.07;;;5.20;99.90;;;;;;4896550;29;20190;-84
2023/04/03 01:26:53;;;;;;;11.02;10.02;;;5.20;99.90;;;;;;4895661;29;20663;-83
2023/04/03 01:29:19;;;;;;;11.60;10.50;;;5.20;99.90;;;;;;4897337;29;20190;-84
2023/04/03 01:31:54;;;;;;;11.40;10.20;;;5.20;99.90;;;;;;4895310;29;20215;-84
2023/04/03 01:34:20;;;;;;;13.98;10.82;;;5.20;99.90;;;;;;4897369;29;20220;-83
2023/04/03 01:36:45;;;;;;;12.57;11.30;;;5.20;99.90;;;;;;4896323;29;20679;-83
2023/04/03 01:39:12;;;;;;;12.27;11.13;;;5.00;99.90;;;;;;4894194;29;20318;-83
2023/04/03 01:41:38;;;;;;;10.90;9.90;;;4.90;99.90;;;;;;4897215;29;20203;-83
2023/04/03 01:44:04;;;;;;;11.05;10.00;;;5.00;99.90;;;;;;4895324;29;22506;-83
2023/04/03 01:46:29;;;;;;;13.10;11.73;;;4.90;99.90;;;;;;4897151;29;20266;-83
2023/04/03 01:48:55;;;;;;;12.23;11.13;;;5.00;99.90;;;;;;4896500;29;20422;-83
2023/04/03 01:51:21;;;;;;;14.57;10.87;;;4.90;99.90;;;;;;4897137;29;20491;-84
2023/04/03 01:53:47;;;;;;;11.57;10.25;;;5.00;99.90;;;;;;4895805;29;20628;-82
2023/04/03 01:56:13;;;;;;;11.97;10.70;;;5.00;99.90;;;;;;4893880;29;20202;-84
2023/04/03 01:58:39;;;;;;;10.83;9.83;;;5.00;99.90;;;;;;4897087;29;20214;-84
2023/04/03 02:01:05;;;;;;;11.20;10.13;;;5.00;99.90;;;;;;4895046;29;20600;-84
2023/04/03 02:03:31;;;;;;;10.75;9.70;;;5.00;99.90;;;;;;4896322;29;20788;-84
2023/04/03 02:05:58;;;;;;;11.80;10.67;;;5.00;99.90;;;;;;4895267;29;20192;-84
2023/04/03 02:08:24;;;;;;;10.25;9.25;;;4.90;99.90;;;;;;4895958;29;20194;-84
2023/04/03 02:10:50;;;;;;;11.93;9.73;;;4.90;99.90;;;;;;4895742;29;20543;-84
2023/04/03 02:13:17;;;;;;;11.57;10.48;;;4.80;99.90;;;;;;4896147;29;20230;-83
2023/04/03 02:15:42;;;;;;;11.38;10.38;;;4.80;99.90;;;;;;4894828;29;20215;-83
2023/04/03 02:18:08;;;;;;;11.87;10.77;;;4.90;99.90;;;;;;4896175;29;20218;-83
2023/04/03 02:20:34;;;;;;;11.98;10.77;;;4.80;99.90;;;;;;4896887;29;20574;-84
2023/04/03 02:23:01;;;;;;;12.05;10.85;;;4.80;99.90;;;;;;4896089;29;20327;-83
2023/04/03 02:25:27;;;;;;;10.82;9.35;;;4.90;99.90;;;;;;4896137;29;20192;-83
2023/04/03 02:27:52;;;;;;;10.37;9.37;;;4.90;99.90;;;;;;4895509;29;20194;-81
2023/04/03 02:30:18;;;;;;;11.03;9.97;;;4.70;99.90;;;;;;4896413;29;20258;-83
2023/04/03 02:32:44;;;;;;;12.90;10.50;;;4.70;99.90;;;;;;4896710;29;20215;-84
2023/04/03 02:35:10;;;;;;;11.90;10.70;;;4.70;99.90;;;;;;4894519;29;20509;-84
2023/04/03 02:37:37;;;;;;;12.15;9.82;;;4.70;99.90;;;;;;4896466;29;20219;-84
2023/04/03 02:40:03;;;;;;;9.90;8.93;;;4.70;99.90;;;;;;4894915;29;20616;-83
2023/04/03 02:42:29;;;;;;;9.93;8.75;;;4.70;99.90;;;;;;4895481;29;20628;-83
2023/04/03 02:44:55;;;;;;;9.63;8.13;;;4.70;99.90;;;;;;4894198;29;20186;-81
2023/04/03 02:47:20;;;;;;;11.00;7.53;;;4.70;99.90;;;;;;4895418;29;20187;-83
2023/04/03 02:49:46;;;;;;;7.97;7.27;;;4.70;99.90;;;;;;4896594;29;20263;-83
2023/04/03 02:52:13;;;;;;;7.30;6.60;;;4.70;99.90;;;;;;4897025;29;20212;-83
2023/04/03 02:54:39;;;;;;;8.30;6.80;;;4.70;99.90;;;;;;4899359;29;20545;-84
2023/04/03 02:57:07;;;;;;;6.97;6.30;;;4.80;99.90;;;;;;4899281;29;20210;-83
2023/04/03 02:59:33;;;;;;;7.22;6.60;;;4.80;99.90;;;;;;4899846;29;20175;-83
2023/04/03 03:01:59;;;;;;;7.63;6.77;;;4.90;99.90;;;;;;4899166;29;20703;-82
2023/04/03 03:04:25;;;;;;;7.57;6.97;;;4.90;99.90;;;;;;4896252;29;20239;-83
2023/04/03 03:06:50;;;;;;;7.93;6.70;;;4.90;99.90;;;;;;4896858;29;20253;-84
2023/04/03 03:09:16;;;;;;;7.50;6.90;;;4.90;99.90;;;;;;4898214;29;20490;-83
2023/04/03 03:11:42;;;;;;;7.83;7.07;;;4.80;99.90;;;;;;4897842;29;20219;-84
2023/04/03 03:14:08;;;;;;;7.53;6.90;;;4.90;99.90;;;;;;4897465;29;20183;-83
2023/04/03 03:16:33;;;;;;;7.83;7.07;;;4.80;99.90;;;;;;4899884;29;20210;-84
2023/04/03 03:18:59;;;;;;;7.90;7.13;;;4.70;99.90;;;;;;4897641;29;20394;-83
2023/04/03 03:21:25;;;;;;;7.97;7.27;;;4.80;99.90;;;;;;4898631;29;20195;-83
2023/04/03 03:23:51;;;;;;;7.85;7.05;;;4.70;99.90;;;;;;4899574;29;20412;-84
2023/04/03 03:26:17;;;;;;;6.97;6.37;;;4.70;99.90;;;;;;4908524;29;20195;-84
2023/04/03 03:28:43;;;;;;;6.90;6.40;;;4.60;99.90;;;;;;4881075;29;20180;-84
2023/04/03 03:31:09;;;;;;;9.70;6.87;;;4.50;99.90;;;;;;4878562;29;20263;-83
2023/04/03 03:33:35;;;;;;;7.40;6.80;;;4.50;99.90;;;;;;4910827;29;20214;-83
2023/04/03 03:36:01;;;;;;;6.50;5.90;;;4.50;99.90;;;;;;4892787;29;20574;-82
2023/04/03 03:38:27;;;;;;;6.53;5.90;;;4.60;99.90;;;;;;4898484;29;20305;-83
2023/04/03 03:40:53;;;;;;;6.37;5.90;;;4.70;99.90;;;;;;4899259;29;20319;-84
2023/04/03 03:43:20;;;;;;;6.73;6.13;;;4.70;99.90;;;;;;4898186;29;20446;-84
2023/04/03 03:45:51;;;;;;;7.43;6.72;;;4.80;99.90;;;;;;4897175;29;20451;-83
2023/04/03 03:48:16;;;;;;;8.15;7.53;;;4.80;99.90;;;;;;4898417;29;20179;-83
2023/04/03 03:50:42;;;;;;;5.80;5.20;;;4.90;99.90;;;;;;4897680;29;20183;-84
2023/04/03 03:53:08;;;;;;;5.63;5.13;;;4.90;99.90;;;;;;4897333;29;20570;-83
2023/04/03 03:55:34;;;;;;;8.03;7.33;;;5.00;99.90;;;;;;4898138;29;20251;-83
2023/04/03 03:58:00;;;;;;;5.73;5.00;;;4.90;99.90;;;;;;4895290;29;20454;-81
2023/04/03 04:00:26;;;;;;;12.82;6.15;;;5.00;99.90;;;;;;4900130;29;20179;-87
2023/04/03 04:02:52;;;;;;;6.00;5.40;;;4.90;99.90;;;;;;4909797;29;20606;-86
2023/04/03 04:05:18;;;;;;;6.13;5.63;;;4.90;99.90;;;;;;4902760;29;20506;-86
2023/04/03 04:07:43;;;;;;;7.00;6.50;;;4.70;99.90;;;;;;4902647;29;20506;-86
2023/04/03 04:10:09;;;;;;;5.23;4.83;;;4.80;99.90;;;;;;4896471;29;20636;-88
2023/04/03 04:12:35;;;;;;;5.07;4.57;;;4.80;99.90;;;;;;4898364;29;20227;-85
2023/04/03 04:15:02;;;;;;;5.70;5.07;;;4.60;99.90;;;;;;4893768;29;20944;-81
2023/04/03 04:17:28;;;;;;;6.85;5.80;;;4.60;99.90;;;;;;4908789;29;20439;-87
2023/04/03 04:19:53;;;;;;;5.27;4.87;;;4.60;99.90;;;;;;4879622;29;20609;-86
2023/04/03 04:22:19;;;;;;;6.00;5.13;;;4.60;99.90;;;;;;4908618;29;20678;-86
2023/04/03 04:24:45;;;;;;;5.57;5.07;;;4.60;99.90;;;;;;4897816;29;20179;-87
2023/04/03 04:27:11;;;;;;;5.87;5.47;;;4.70;99.90;;;;;;4896368;29;20183;-87
2023/04/03 04:29:37;;;;;;;6.57;5.73;;;4.90;99.90;;;;;;4898056;29;20179;-87
2023/04/03 04:32:03;;;;;;;6.60;5.43;;;4.80;99.90;;;;;;4897223;29;20455;-81
2023/04/03 04:34:29;;;;;;;5.20;4.65;;;4.90;99.90;;;;;;4897523;29;20378;-86
2023/04/03 04:36:55;;;;;;;4.97;4.57;;;5.00;99.90;;;;;;4896494;29;20183;-86
2023/04/03 04:39:20;;;;;;;8.23;6.40;;;4.80;99.90;;;;;;4897111;29;20386;-87
2023/04/03 04:41:46;;;;;;;6.03;4.80;;;4.60;99.90;;;;;;4897531;29;20534;-87
2023/04/03 04:44:12;;;;;;;5.70;4.90;;;4.60;99.90;;;;;;4897443;29;20183;-86
2023/04/03 04:46:38;;;;;;;6.13;5.03;;;4.60;99.90;;;;;;4896063;29;20628;-86
2023/04/03 04:49:03;;;;;;;4.57;4.17;;;4.70;99.90;;;;;;4897262;29;20229;-81
2023/04/03 04:51:30;;;;;;;5.20;4.73;;;4.60;99.90;;;;;;4897982;29;20673;-86
2023/04/03 04:53:55;;;;;;;4.95;4.45;;;4.80;99.90;;;;;;4897936;29;20179;-87
2023/04/03 04:56:21;;;;;;;5.43;4.83;;;4.70;99.90;;;;;;4896429;29;20337;-87
2023/04/03 04:58:47;;;;;;;4.90;4.50;;;4.80;99.90;;;;;;4895500;29;20179;-87
2023/04/03 05:01:13;;;;;;;5.60;5.20;;;4.90;99.90;;;;;;4894594;29;20435;-85
2023/04/03 05:03:39;;;;;;;5.37;4.60;;;4.80;99.90;;;;;;4897471;29;20417;-86
2023/04/03 05:06:05;;;;;;;4.20;3.90;;;4.80;99.90;;;;;;4895123;29;20587;-83
2023/04/03 05:08:31;;;;;;;4.60;4.20;;;4.80;99.90;;;;;;4896703;29;20285;-87
2023/04/03 05:10:59;;;;;;;6.45;5.82;;;4.80;99.90;;;;;;4896876;29;20497;-87
2023/04/03 05:13:25;;;;;;;5.03;4.20;;;4.80;99.90;;;;;;4895470;29;20245;-88
2023/04/03 05:15:50;;;;;;;4.97;4.47;;;4.60;99.90;;;;;;4893311;29;20647;-88
2023/04/03 05:18:16;;;;;;;5.03;4.50;;;4.70;99.90;;;;;;4895619;29;20650;-87
2023/04/03 05:20:43;;;;;;;5.70;5.13;;;4.80;99.90;;;;;;4897825;29;20262;-87
2023/04/03 05:23:10;;;;;;;7.38;6.68;;;4.70;99.90;;;;;;4896470;29;20658;-87
2023/04/03 05:25:38;;;;;;;7.93;4.97;;;4.80;99.90;;;;;;4896536;29;20190;-87
2023/04/03 05:28:04;;;;;;;6.00;4.10;;;4.90;99.90;;;;;;4894762;29;20214;-82
2023/04/03 05:30:29;;;;;;;5.77;4.47;;;4.90;99.90;;;;;;4894456;29;20218;-88
2023/04/03 05:32:55;;;;;;;5.60;5.10;;;4.90;99.90;;;;;;4895925;29;20549;-87
2023/04/03 05:35:21;;;;;;;7.20;6.20;;;4.90;99.90;;;;;;4894306;29;20195;-87
2023/04/03 05:37:47;;;;;;;6.00;5.37;;;4.90;99.90;;;;;;4897054;29;20227;-87
2023/04/03 05:40:12;;;;;;;6.57;5.40;;;4.90;99.90;;;;;;4896523;29;20419;-88
2023/04/03 05:42:38;;;;;;;5.80;5.30;;;5.00;99.90;;;;;;4897120;29;20719;-87
2023/04/03 05:45:04;;;;;;;8.17;7.50;;;5.00;99.90;;;;;;4894402;29;20266;-82
2023/04/03 05:47:31;;;;;;;6.15;5.30;;;5.10;99.90;;;;;;4895002;29;20193;-87
2023/04/03 05:49:56;;;;;;;8.23;5.03;;;5.10;99.90;;;;;;4897185;29;20578;-86
2023/04/03 05:52:31;;;;;;;7.10;5.40;;;5.10;99.90;;;;;;4895356;29;20219;-86
2023/04/03 05:54:57;;;;;;;7.15;5.13;;;5.10;99.90;;;;;;4896306;29;20231;-87
2023/04/03 05:57:23;;;;;;;5.70;5.10;;;5.10;99.90;;;;;;4893142;29;20185;-86
2023/04/03 05:59:49;;;;;;;8.20;6.43;;;5.10;99.90;;;;;;4882441;29;20416;-87
2023/04/03 06:02:20;;;;;;;6.13;4.80;;;5.10;99.90;;;;;;4896309;29;20190;-85
2023/04/03 06:04:47;;;;;;;6.32;5.53;;;5.20;99.90;;;;;;4895569;29;20559;-87
2023/04/03 06:07:20;;;;;;;8.77;5.20;;;5.30;99.90;;;;;;4895387;29;20234;-87
2023/04/03 06:09:46;;;;;;;5.88;4.60;;;5.20;99.90;;;;;;4895987;29;20195;-87
2023/04/03 06:12:12;;;;;;;6.95;5.10;;;5.40;99.90;;;;;;4896069;29;20206;-85
2023/04/03 06:14:38;;;;;;;6.10;4.70;;;5.20;99.90;;;;;;4893649;29;20179;-84
2023/04/03 06:17:04;;;;;;;6.23;5.27;;;5.10;99.90;;;;;;4909914;29;20402;-85
2023/04/03 06:19:30;;;;;;;4.93;4.10;;;5.10;99.90;;;;;;4895545;29;20435;-86
2023/04/03 06:21:56;;;;;;;6.40;5.18;;;5.00;99.90;;;;;;4893327;29;20414;-86
2023/04/03 06:24:23;;;;;;;7.10;5.53;;;5.10;99.90;;;;;;4895192;29;20179;-86
2023/04/03 06:26:51;;;;;;;6.75;5.63;;;5.10;99.90;;;;;;4928159;29;20422;-86
2023/04/03 06:29:17;;;;;;;7.22;6.18;;;5.10;99.90;;;;;;4896332;29;20190;-90
2023/04/03 06:31:43;;;;;;;7.00;6.22;;;5.20;99.90;;;;;;4897076;29;20214;-91
2023/04/03 06:34:10;;;;;;;6.32;5.00;;;5.30;99.90;;;;;;4899680;29;20195;-83
2023/04/03 06:36:36;;;;;;;8.70;5.30;;;5.20;99.90;;;;;;4900996;29;20179;-91
2023/04/03 06:39:03;;;;;;;6.10;5.50;;;5.30;99.90;;;;;;4900091;29;20713;-90
2023/04/03 06:41:29;;;;;;;7.75;6.95;;;5.30;99.90;;;;;;4897527;29;20814;-91
2023/04/03 06:43:57;;;;;;;5.47;5.00;;;5.30;99.90;;;;;;4899251;29;20647;-92
2023/04/03 06:46:24;;;;;;;5.60;5.20;;;5.40;99.90;;;;;;4898987;29;20571;-88
2023/04/03 06:48:50;;;;;;;7.88;5.38;;;5.30;99.90;;;;;;4898370;29;20183;-91
2023/04/03 06:51:26;;;;;;;6.38;5.60;;;5.30;99.90;;;;;;4899309;29;20186;-91
2023/04/03 06:53:55;;;;;;;6.32;4.72;;;5.40;99.90;;;;;;4900138;29;20175;-93
2023/04/03 06:56:21;;;;;;;4.68;3.90;;;5.40;99.90;;;;;;4899334;29;20185;-90
2023/04/03 06:58:48;;;;;;;9.00;4.93;;;5.40;99.90;;;;;;4897996;29;20184;-92
2023/04/03 07:01:18;;;;;;;5.40;3.90;;;5.40;99.90;;;;;;4899445;29;20188;-90
2023/04/03 07:03:46;;;;;;;5.20;4.70;;;5.40;99.90;;;;;;4900050;29;20215;-88
2023/04/03 07:06:13;;;;;;;6.75;5.93;;;5.40;99.90;;;;;;4913775;29;20179;-83
2023/04/03 07:08:40;;;;;;;4.88;4.53;;;5.40;99.90;;;;;;4899251;29;20282;-90
2023/04/03 07:11:06;;;;;;;5.20;4.50;;;5.40;99.90;;;;;;4899291;29;20187;-92
2023/04/03 07:13:32;;;;;;;7.05;3.90;;;5.50;99.90;;;;;;4899121;29;20576;-92
2023/04/03 07:15:58;;;;;;;4.03;3.72;;;5.60;99.90;;;;;;4899524;29;20179;-91
2023/04/03 07:18:24;;;;;;;5.45;4.97;;;5.80;99.90;;;;;;4898788;29;20183;-91
2023/04/03 07:20:50;;;;;;;5.70;5.20;;;5.80;99.90;;;;;;4899188;29;20202;-93
2023/04/03 07:23:16;;;;;;;5.93;5.00;;;6.00;99.90;;;;;;4899009;29;20194;-92
2023/04/03 07:25:46;;;;;;;7.90;4.85;;;5.90;99.90;;;;;;4898206;29;20757;-86
2023/04/03 07:28:13;;;;;;;4.75;4.20;;;5.90;99.90;;;;;;4899119;29;20533;-84
2023/04/03 07:30:46;;;;;;;7.22;4.50;;;5.90;99.90;;;;;;4898345;29;20259;-91
2023/04/03 07:33:14;;;;;;;5.65;5.13;;;6.00;99.90;;;;;;4898906;29;20211;-84
2023/04/03 07:35:40;;;;;;;7.75;6.05;;;6.30;99.90;;;;;;4899362;29;20189;-85
2023/04/03 07:38:06;;;;;;;6.13;5.37;;;7.10;99.90;;;;;;4898759;29;20232;-85
2023/04/03 07:40:33;;;;;;;5.90;5.50;;;8.00;99.90;;;;;;4897644;29;20492;-85
2023/04/03 07:42:59;;;;;;;7.27;4.40;;;8.80;99.90;;;;;;4899406;29;20543;-85
2023/04/03 07:45:25;;;;;;;6.40;4.93;;;9.40;99.90;;;;;;4897526;29;20412;-85
2023/04/03 07:47:51;;;;;;;5.37;4.97;;;9.90;99.90;;;;;;4899291;29;20424;-85
2023/04/03 07:50:18;;;;;;;5.97;5.07;;;10.30;99.90;;;;;;4886399;29;20980;-84
2023/04/03 07:52:44;;;;;;;6.00;5.60;;;10.70;99.90;;;;;;4880311;29;20971;-85
2023/04/03 07:55:10;;;;;;;8.73;5.80;;;11.20;99.60;;;;;;4880213;29;20774;-85
2023/04/03 07:57:36;;;;;;;4.80;4.40;;;11.60;99.90;;;;;;4878412;29;20426;-85
2023/04/03 08:00:04;;;;;;;4.20;3.83;;;11.80;92.80;;;;;;4893262;29;20276;-86
2023/04/03 08:02:31;;;;;;;6.60;4.43;;;12.00;91.70;;;;;;4891804;29;20468;-85
2023/04/03 08:04:58;;;;;;;4.80;4.50;;;12.00;89.70;;;;;;4896836;29;21006;-85
2023/04/03 08:07:25;;;;;;;5.70;5.07;;;12.10;85.30;;;;;;4897511;29;20427;-84
2023/04/03 08:09:51;;;;;;;5.47;5.03;;;11.90;92.50;;;;;;4896602;29;20781;-85
2023/04/03 08:12:17;;;;;;;4.87;4.37;;;11.90;91.60;;;;;;4896841;29;20521;-84
2023/04/03 08:14:43;;;;;;;4.90;4.43;;;12.20;90.70;;;;;;4898894;29;20463;-85
2023/04/03 08:17:11;;;;;;;9.00;6.10;;;12.60;93.30;;;;;;4898330;29;20815;-85
2023/04/03 08:19:38;;;;;;;5.40;3.97;;;12.80;89.60;;;;;;4897209;29;20221;-85
2023/04/03 08:22:04;;;;;;;5.60;4.73;;;12.90;82.80;;;;;;4896300;29;20439;-86
2023/04/03 08:24:31;;;;;;;4.90;4.40;;;13.00;82.60;;;;;;4896112;29;20938;-86
2023/04/03 08:26:57;;;;;;;8.37;5.20;;;13.20;90.30;;;;;;4895468;29;20443;-85
2023/04/03 08:29:23;;;;;;;4.67;4.10;;;13.20;90.10;;;;;;4895945;29;20751;-86
2023/04/03 08:31:50;;;;;;;4.40;4.00;;;13.50;90.20;;;;;;4897977;29;20219;-84
2023/04/03 08:34:16;;;;;;;5.90;5.07;;;13.70;89.00;;;;;;4896248;29;20430;-84
2023/04/03 08:36:42;;;;;;;4.03;3.73;;;13.70;81.70;;;;;;4897599;29;20444;-85
2023/04/03 08:39:09;;;;;;;4.87;4.37;;;13.60;75.60;;;;;;4897318;29;20552;-86
2023/04/03 08:41:39;;;;;;;4.57;4.18;;;13.60;76.40;;;;;;4905709;29;21046;-92
2023/04/03 08:44:37;;;;;;;4.90;4.60;;;13.20;68.90;;;;;;4913145;29;20186;-93
2023/04/03 08:47:08;;;;;;;4.53;4.00;;;12.50;69.70;;;;;;4918488;29;20491;-89
2023/04/03 08:49:51;;;;;;;4.20;3.80;;;11.70;71.80;;;;;;4919915;29;20431;-93
2023/04/03 08:52:38;;;;;;;3.40;3.10;;;11.20;73.70;;;;;;4919777;29;20469;-87
2023/04/03 08:55:13;;;;;;;6.13;3.83;;;10.40;74.80;;;;;;4898036;29;20425;-87
2023/04/03 08:57:42;;;;;;;3.67;3.37;;;10.00;75.60;;;;;;4906907;29;20437;-86
2023/04/03 09:00:14;;;;;;;4.30;3.90;;;9.70;79.00;;;;;;4880968;29;20804;-87
2023/04/03 09:02:53;;;;;;;8.10;5.10;;;9.40;80.40;;;;;;4898369;29;20416;-87
2023/04/03 09:05:27;;;;;;;5.90;3.37;;;9.20;84.50;;;;;;4899445;29;20435;-88
2023/04/03 09:08:05;;;;;;;3.53;2.70;;;9.10;84.70;;;;;;4897030;29;20431;-92
2023/04/03 09:10:34;;;;;;;4.90;4.50;;;8.90;82.80;;;;;;4897351;29;20410;-92
2023/04/03 09:13:26;;;;;;;4.93;4.53;;;8.90;91.70;;;;;;4897912;29;20467;-94
2023/04/03 09:15:54;;;;;;;5.20;3.87;;;9.00;92.20;;;;;;4889944;29;20455;-94
2023/04/03 09:18:27;;;;;;;4.60;3.60;;;9.00;90.70;;;;;;4896163;29;20424;-94
2023/04/03 09:21:08;;;;;;;4.13;3.73;;;9.00;90.00;;;;;;4897102;29;20953;-90
2023/04/03 09:23:37;;;;;;;4.50;3.00;;;9.10;88.70;;;;;;4895811;29;20498;-91
2023/04/03 09:26:09;;;;;;;4.07;2.70;;;9.20;84.80;;;;;;4897228;29;20427;-90
2023/04/03 09:28:38;;;;;;;3.53;3.27;;;9.30;87.60;;;;;;4896794;29;20447;-92
2023/04/03 09:31:20;;;;;;;3.60;3.30;;;9.50;86.10;;;;;;4897780;29;20439;-91
2023/04/03 09:33:49;;;;;;;3.70;3.40;;;9.60;83.40;;;;;;4897243;29;20444;-91
2023/04/03 09:36:41;;;;;;;4.93;3.27;;;9.90;81.40;;;;;;4897545;29;20420;-91
2023/04/03 09:39:16;;;;;;;2.93;2.60;;;10.20;83.50;;;;;;4897511;29;20484;-91
2023/04/03 09:41:56;;;;;;;3.10;2.90;;;10.50;78.20;;;;;;4893937;29;20443;-91
2023/04/03 09:44:28;;;;;;;3.50;3.30;;;10.70;75.60;;;;;;4896603;29;20401;-90
2023/04/03 09:46:54;;;;;;;2.20;2.10;;;10.90;73.60;;;;;;4897161;29;20838;-87
2023/04/03 09:49:20;;;;;;;4.20;3.63;;;11.10;73.20;;;;;;4895400;29;20502;-86
2023/04/03 09:51:46;;;;;;;3.80;3.47;;;11.30;72.30;;;;;;4895593;29;20297;-88
2023/04/03 09:54:45;;;;;;;3.87;3.67;;;11.60;73.00;;;;;;4894732;29;20444;-86
2023/04/03 09:57:13;;;;;;;2.70;2.50;;;11.70;68.10;;;;;;4874915;29;20434;-86
2023/04/03 09:59:58;;;;;;;4.57;4.27;;;11.80;68.30;;;;;;4876435;29;20817;-87
2023/04/03 10:02:40;;;;;;;3.23;2.73;;;11.80;71.00;;;;;;4881604;29;20419;-86
2023/04/03 10:05:35;;;;;;;5.03;4.70;;;12.00;69.50;;;;;;4893365;29;20430;-88
2023/04/03 10:08:15;;;;;;;3.70;3.60;;;12.10;71.10;;;;;;4898583;29;20496;-88
2023/04/03 10:10:42;;;;;;;3.97;2.80;;;12.20;67.20;;;;;;4898801;29;20521;-89
2023/04/03 10:13:18;;;;;;;3.50;3.20;;;12.50;65.90;;;;;;4894877;29;20476;-90
2023/04/03 10:16:11;;;;;;;4.03;3.87;;;12.60;59.30;;;;;;4901972;29;20431;-90
2023/04/03 10:18:45;;;;;;;2.60;2.40;;;12.50;58.00;;;;;;4891631;29;20446;-86
2023/04/03 10:21:52;;;;;;;2.70;2.50;;;12.60;59.60;;;;;;4884640;29;20426;-87
2023/04/03 10:24:25;;;;;;;4.23;3.90;;;12.70;59.90;;;;;;4900845;29;20448;-87
2023/04/03 10:26:58;;;;;;;4.53;3.20;;;12.90;60.40;;;;;;4900693;29;20405;-87
2023/04/03 10:29:33;;;;;;;2.70;2.50;;;13.00;60.40;;;;;;4899844;29;20426;-86
2023/04/03 10:32:28;;;;;;;2.70;2.60;;;13.20;59.40;;;;;;4898925;29;20527;-87
2023/04/03 10:35:25;;;;;;;3.70;3.03;;;13.20;57.00;;;;;;4900127;29;20453;-87
2023/04/03 10:38:44;;;;;;;3.27;2.97;;;13.40;58.70;;;;;;4879228;29;20569;-87
2023/04/03 10:41:32;;;;;;;2.90;2.80;;;13.60;55.70;;;;;;4878438;29;20895;-87
2023/04/03 10:44:30;;;;;;;3.47;3.17;;;13.60;50.70;;;;;;4893786;29;20450;-88
2023/04/03 10:47:21;;;;;;;5.20;3.97;;;13.70;55.80;;;;;;4898823;29;20477;-88
2023/04/03 10:49:50;;;;;;;5.40;5.00;;;13.70;54.50;;;;;;4898613;29;20443;-88
2023/04/03 10:52:40;;;;;;;5.00;4.60;;;13.70;52.90;;;;;;4900178;29;20897;-88
2023/04/03 10:55:35;;;;;;;2.90;2.70;;;13.70;54.50;;;;;;4898577;29;20442;-88
2023/04/03 10:58:04;;;;;;;5.30;5.10;;;13.80;52.50;;;;;;4898292;29;20803;-88
2023/04/03 11:00:48;;;;;;;1.90;1.80;;;13.80;53.10;;;;;;4898571;29;20470;-87
2023/04/03 11:03:23;;;;;;;3.20;3.00;;;13.80;51.30;;;;;;4900080;29;20493;-88
2023/04/03 11:05:53;;;;;;;5.50;5.10;;;13.60;50.10;;;;;;4899445;29;20504;-86
2023/04/03 11:08:40;;;;;;;3.30;3.00;;;13.80;53.40;;;;;;4892930;29;20511;-88
2023/04/03 11:11:11;;;;;;;3.20;2.90;;;13.80;51.00;;;;;;4888933;29;20795;-91
2023/04/03 11:14:08;;;;;;;5.50;4.90;;;13.90;52.80;;;;;;4898283;29;20454;-89
2023/04/03 11:16:41;;;;;;;4.47;4.17;;;13.80;49.20;;;;;;4898691;29;20751;-90
2023/04/03 11:19:33;;;;;;;4.70;4.40;;;13.80;51.80;;;;;;4897221;29;20437;-89
2023/04/03 11:22:10;;;;;;;3.00;2.50;;;13.60;52.00;;;;;;4897661;29;20520;-91
2023/04/03 11:24:41;;;;;;;4.20;3.90;;;13.80;53.10;;;;;;4887537;29;20450;-92
2023/04/03 11:27:22;;;;;;;3.60;3.40;;;13.90;50.30;;;;;;4886844;29;20425;-92
2023/04/03 11:29:52;;;;;;;3.43;3.17;;;13.80;50.60;;;;;;4879992;29;20439;-92
2023/04/03 11:32:17;;;;;;;3.70;3.50;;;13.90;52.30;;;;;;4896043;29;20478;-92
2023/04/03 11:34:53;;;;;;;3.70;3.50;;;13.90;50.70;;;;;;4898695;29;20419;-92
2023/04/03 11:37:37;;;;;;;3.60;3.40;;;14.00;52.90;;;;;;4899450;29;20229;-92
2023/04/03 11:40:26;;;;;;;3.73;3.53;;;14.10;53.10;;;;;;4899461;29;20446;-91
2023/04/03 11:43:17;;;;;;;3.83;3.73;;;14.20;50.40;;;;;;4899287;29;20466;-92
2023/04/03 11:46:03;;;;;;;4.73;4.33;;;14.20;48.80;;;;;;4898014;29;20494;-91
2023/04/03 11:48:29;;;;;;;5.23;4.93;;;14.10;49.30;;;;;;4913230;29;20424;-86
2023/04/03 11:50:56;;;;;;;4.83;4.63;;;14.00;49.80;;;;;;4897545;29;20457;-89
2023/04/03 11:53:53;;;;;;;3.33;3.00;;;14.00;49.40;;;;;;4898905;29;20472;-89
2023/04/03 11:56:25;;;;;;;4.70;4.40;;;13.70;51.40;;;;;;4896042;29;20431;-88
2023/04/03 11:59:10;;;;;;;2.57;2.37;;;13.70;49.90;;;;;;4896398;29;20439;-88
2023/04/03 12:01:56;;;;;;;4.43;4.00;;;13.60;49.90;;;;;;4887553;29;20517;-89
2023/04/03 12:04:27;;;;;;;3.30;3.10;;;13.50;48.30;;;;;;4897447;29;20903;-88
2023/04/03 12:07:02;;;;;;;3.40;3.07;;;13.80;52.90;;;;;;4898261;29;20420;-89
2023/04/03 12:09:33;;;;;;;3.60;3.30;;;13.90;50.80;;;;;;4896998;29;20840;-83
2023/04/03 12:12:01;;;;;;;3.10;3.00;;;14.10;51.30;;;;;;4898816;29;20455;-85
2023/04/03 12:14:28;;;;;;;2.60;2.40;;;14.20;49.50;;;;;;4898345;29;20407;-80
2023/04/03 12:16:57;;;;;;;4.90;4.70;;;14.10;48.00;;;;;;4880328;29;20418;-84
2023/04/03 12:19:33;;;;;;;5.23;4.93;;;14.00;49.70;;;;;;4893194;29;20434;-85
2023/04/03 12:21:59;;;;;;;5.17;4.90;;;14.10;49.10;;;;;;4897186;29;20440;-84
2023/04/03 12:24:26;;;;;;;3.47;3.27;;;14.20;50.90;;;;;;4894511;29;20502;-84
2023/04/03 12:27:28;;;;;;;3.10;2.63;;;14.30;49.20;;;;;;4897486;29;20197;-85
2023/04/03 12:30:06;;;;;;;3.63;3.40;;;14.20;50.00;;;;;;4897189;29;20439;-84
2023/04/03 12:32:32;;;;;;;3.80;3.50;;;14.10;50.80;;;;;;4897159;29;20455;-85
2023/04/03 12:35:05;;;;;;;3.60;3.30;;;14.10;52.30;;;;;;4898320;29;20442;-84
2023/04/03 12:38:05;;;;;;;3.83;3.67;;;14.10;51.50;;;;;;4895984;29;20242;-82
2023/04/03 12:40:44;;;;;;;5.10;3.30;;;14.20;51.00;;;;;;4885191;29;20435;-79
2023/04/03 12:43:21;;;;;;;3.63;3.53;;;14.20;49.20;;;;;;4898397;29;20426;-80
2023/04/03 12:45:50;;;;;;;4.50;4.20;;;14.10;50.10;;;;;;4897109;29;21267;-80
2023/04/03 12:48:22;;;;;;;3.27;3.17;;;14.00;51.30;;;;;;4896584;29;20513;-81
2023/04/03 12:50:49;;;;;;;4.73;4.43;;;13.90;49.60;;;;;;4897267;29;21326;-81
2023/04/03 12:53:22;;;;;;;3.23;3.00;;;14.00;50.40;;;;;;4897582;29;21072;-82
2023/04/03 12:55:53;;;;;;;5.17;4.87;;;14.10;50.90;;;;;;4896024;29;20424;-81
2023/04/03 12:58:24;;;;;;;2.80;2.60;;;14.20;50.50;;;;;;4897394;29;20427;-81
2023/04/03 13:01:01;;;;;;;5.30;5.00;;;14.30;50.70;;;;;;4896848;29;20483;-81
2023/04/03 13:03:28;;;;;;;2.67;2.57;;;14.30;52.10;;;;;;4897760;29;20427;-81
2023/04/03 13:06:01;;;;;;;4.00;3.80;;;14.10;49.60;;;;;;4896742;29;20570;-82